Time;durP1;ratioP1;P1;durP2;ratioP2;P2;SDS_P1;SDS_P2;PMS_P1;PMS_P2;Temp;Humidity;BMP_temperature;BMP_pressure;BME280_temperature;BME280_humidity;BME280_pressure;Samples;Min_cycle;Max_cycle;Signal;HPM_P1;HPM_P2
2022/12/10 00:01:39;;;;;;;35.33;19.92;;;-2.00;99.90;;;;;;5125210;27;20504;-59
2022/12/10 00:04:05;;;;;;;37.20;20.40;;;-1.90;99.90;;;;;;5119873;27;20479;-60
2022/12/10 00:06:33;;;;;;;37.38;20.77;;;-1.90;99.90;;;;;;5110198;27;20035;-60
2022/12/10 00:09:01;;;;;;;39.95;20.58;;;-1.90;99.90;;;;;;5126009;27;20051;-60
2022/12/10 00:11:28;;;;;;;32.85;19.15;;;-1.90;99.90;;;;;;5127808;27;20080;-60
2022/12/10 00:13:55;;;;;;;37.22;18.10;;;-1.80;99.90;;;;;;5113508;27;20371;-60
2022/12/10 00:16:23;;;;;;;36.60;18.45;;;-1.90;99.90;;;;;;5095288;27;20086;-60
2022/12/10 00:18:50;;;;;;;32.25;19.60;;;-1.90;99.90;;;;;;5097179;28;20043;-60
2022/12/10 00:21:19;;;;;;;32.67;19.30;;;-1.90;99.90;;;;;;5111667;27;20035;-60
2022/12/10 00:23:45;;;;;;;40.63;20.75;;;-1.90;99.90;;;;;;5098657;28;20099;-60
2022/12/10 00:26:15;;;;;;;37.25;19.95;;;-1.90;99.90;;;;;;5120886;27;20126;-60
2022/12/10 00:28:42;;;;;;;33.72;17.88;;;-1.90;99.90;;;;;;5107283;28;20105;-59
2022/12/10 00:31:12;;;;;;;37.08;21.10;;;-1.90;99.90;;;;;;5108705;27;20046;-60
2022/12/10 00:33:38;;;;;;;31.88;16.98;;;-1.90;99.90;;;;;;5127292;27;20512;-62
2022/12/10 00:36:08;;;;;;;34.72;19.45;;;-1.90;99.90;;;;;;5108972;27;20039;-63
2022/12/10 00:38:35;;;;;;;42.95;21.48;;;-1.80;99.90;;;;;;5070912;28;20050;-62
2022/12/10 00:41:01;;;;;;;43.47;18.95;;;-1.80;99.90;;;;;;5107040;28;20101;-62
2022/12/10 00:43:27;;;;;;;41.72;21.30;;;-1.70;99.90;;;;;;5107142;27;20369;-62
2022/12/10 00:45:54;;;;;;;40.28;21.58;;;-1.70;99.90;;;;;;5107679;27;20035;-62
2022/12/10 00:48:20;;;;;;;47.42;22.13;;;-1.70;99.90;;;;;;5092241;27;20039;-62
2022/12/10 00:50:57;;;;;;;38.05;20.23;;;-1.60;99.90;;;;;;5098521;28;20140;-62
2022/12/10 00:53:24;;;;;;;38.45;22.00;;;-1.60;99.90;;;;;;5089973;28;20139;-63
2022/12/10 00:55:50;;;;;;;43.50;21.55;;;-1.50;99.90;;;;;;5087105;28;20126;-62
2022/12/10 00:58:16;;;;;;;46.35;21.67;;;-1.50;99.90;;;;;;5107572;28;20130;-62
2022/12/10 01:00:41;;;;;;;40.63;22.38;;;-1.60;99.90;;;;;;5105337;28;20043;-63
2022/12/10 01:03:07;;;;;;;43.47;20.33;;;-1.50;99.90;;;;;;5125853;27;20031;-62
2022/12/10 01:05:33;;;;;;;39.72;21.27;;;-1.50;99.90;;;;;;5123107;27;20045;-62
2022/12/10 01:07:59;;;;;;;44.70;23.35;;;-1.40;99.90;;;;;;5113925;27;20127;-63
2022/12/10 01:10:24;;;;;;;46.20;21.15;;;-1.40;99.90;;;;;;5118606;27;20126;-62
2022/12/10 01:12:51;;;;;;;41.72;21.42;;;-1.40;99.90;;;;;;5107536;28;20051;-62
2022/12/10 01:15:16;;;;;;;31.95;16.70;;;-1.40;99.90;;;;;;5108298;28;20460;-62
2022/12/10 01:17:42;;;;;;;43.55;19.50;;;-1.30;99.90;;;;;;5087627;28;20118;-62
2022/12/10 01:20:08;;;;;;;40.58;22.58;;;-1.30;99.90;;;;;;5106820;28;20039;-62
2022/12/10 01:22:34;;;;;;;41.97;23.42;;;-1.30;99.90;;;;;;5087610;28;20473;-62
2022/12/10 01:25:00;;;;;;;50.10;22.83;;;-1.40;99.90;;;;;;5108748;28;20092;-60
2022/12/10 01:27:26;;;;;;;39.85;21.63;;;-1.40;99.90;;;;;;5107489;28;20099;-60
2022/12/10 01:29:52;;;;;;;40.58;21.95;;;-1.40;99.90;;;;;;5105335;28;20564;-60
2022/12/10 01:32:18;;;;;;;41.83;21.15;;;-1.40;99.90;;;;;;5107192;28;20143;-60
2022/12/10 01:34:43;;;;;;;32.92;19.30;;;-1.40;99.90;;;;;;5105904;28;20072;-60
2022/12/10 01:37:09;;;;;;;36.78;19.88;;;-1.40;99.90;;;;;;5091475;28;20130;-59
2022/12/10 01:39:35;;;;;;;35.00;18.92;;;-1.50;99.90;;;;;;5105724;28;20075;-60
2022/12/10 01:42:00;;;;;;;33.10;19.13;;;-1.50;99.90;;;;;;5120297;28;20049;-62
2022/12/10 01:44:26;;;;;;;35.55;20.38;;;-1.60;99.90;;;;;;5106350;28;20057;-62
2022/12/10 01:46:58;;;;;;;35.40;19.20;;;-1.60;99.90;;;;;;5106227;28;20489;-62
2022/12/10 01:49:31;;;;;;;40.25;20.65;;;-1.70;99.90;;;;;;5106695;28;20051;-62
2022/12/10 01:51:57;;;;;;;39.30;19.10;;;-1.70;99.90;;;;;;5086731;28;20054;-62
2022/12/10 01:54:26;;;;;;;36.22;19.75;;;-1.70;99.90;;;;;;5107119;28;20036;-62
2022/12/10 01:56:59;;;;;;;33.17;19.42;;;-1.80;99.90;;;;;;5110163;28;20044;-62
2022/12/10 01:59:26;;;;;;;37.58;20.58;;;-1.80;99.90;;;;;;5118919;28;20047;-62
2022/12/10 02:02:05;;;;;;;39.25;20.20;;;-1.90;99.90;;;;;;5106491;28;20075;-62
2022/12/10 02:04:49;;;;;;;36.83;21.02;;;-2.00;99.90;;;;;;5097916;28;20079;-60
2022/12/10 02:07:23;;;;;;;44.05;22.70;;;-2.10;99.90;;;;;;5106161;28;20048;-60
2022/12/10 02:10:04;;;;;;;42.55;20.67;;;-2.10;99.90;;;;;;5114154;28;20569;-60
2022/12/10 02:12:42;;;;;;;37.85;19.30;;;-2.10;99.90;;;;;;5090269;28;20082;-60
2022/12/10 02:15:20;;;;;;;36.55;19.20;;;-2.20;99.90;;;;;;5106347;28;20043;-60
2022/12/10 02:17:55;;;;;;;34.47;20.83;;;-2.20;99.90;;;;;;5104407;28;20082;-60
2022/12/10 02:20:26;;;;;;;38.55;19.88;;;-2.20;99.90;;;;;;5105460;28;20044;-61
2022/12/10 02:23:01;;;;;;;37.72;19.40;;;-2.20;99.90;;;;;;5104695;28;20532;-60
2022/12/10 02:25:42;;;;;;;37.80;21.42;;;-2.30;99.90;;;;;;5108574;27;20505;-60
2022/12/10 02:28:42;;;;;;;39.03;20.00;;;-2.30;99.90;;;;;;5123881;27;20126;-60
2022/12/10 02:31:11;;;;;;;37.60;20.17;;;-2.40;99.90;;;;;;5108167;27;20527;-60
2022/12/10 02:33:42;;;;;;;33.85;19.02;;;-2.30;99.90;;;;;;5109364;28;20051;-60
2022/12/10 02:36:11;;;;;;;38.80;21.92;;;-2.40;99.90;;;;;;5122933;27;20516;-60
2022/12/10 02:38:40;;;;;;;35.97;20.50;;;-2.50;99.90;;;;;;5090671;28;20095;-60
2022/12/10 02:41:13;;;;;;;31.90;18.77;;;-2.50;99.90;;;;;;5109554;28;20040;-60
2022/12/10 02:43:39;;;;;;;40.90;22.90;;;-2.50;99.90;;;;;;5108717;28;20119;-60
2022/12/10 02:46:06;;;;;;;37.50;20.85;;;-2.50;99.90;;;;;;5110808;27;20047;-60
2022/12/10 02:48:33;;;;;;;44.08;21.85;;;-2.50;99.90;;;;;;5108302;28;20602;-60
2022/12/10 02:50:59;;;;;;;39.80;21.85;;;-2.40;99.90;;;;;;5109736;28;20516;-60
2022/12/10 02:53:25;;;;;;;44.70;23.33;;;-2.40;99.90;;;;;;5090307;28;20035;-60
2022/12/10 02:56:09;;;;;;;40.58;19.98;;;-2.40;99.90;;;;;;5115033;27;20039;-60
2022/12/10 02:59:04;;;;;;;41.88;21.58;;;-2.40;99.90;;;;;;5125776;27;20075;-60
2022/12/10 03:01:52;;;;;;;38.45;19.95;;;-2.30;99.90;;;;;;5116150;27;20279;-60
2022/12/10 03:04:29;;;;;;;51.15;21.92;;;-2.30;99.90;;;;;;5090192;28;20496;-59
2022/12/10 03:07:02;;;;;;;42.83;20.75;;;-2.30;99.90;;;;;;5110214;27;20100;-60
2022/12/10 03:09:35;;;;;;;41.80;21.80;;;-2.30;99.90;;;;;;5094655;27;20504;-60
2022/12/10 03:12:13;;;;;;;43.40;22.58;;;-2.40;99.90;;;;;;5098555;28;20048;-60
2022/12/10 03:14:39;;;;;;;41.88;20.60;;;-2.40;99.90;;;;;;5089749;28;20035;-60
2022/12/10 03:17:06;;;;;;;38.35;20.63;;;-2.40;99.90;;;;;;5116460;27;20111;-60
2022/12/10 03:19:44;;;;;;;45.42;22.05;;;-2.40;99.90;;;;;;5106105;28;20486;-60
2022/12/10 03:22:13;;;;;;;42.30;22.27;;;-2.40;99.90;;;;;;5107406;28;20572;-60
2022/12/10 03:24:41;;;;;;;45.80;22.45;;;-2.40;99.90;;;;;;5109373;28;20047;-60
2022/12/10 03:27:10;;;;;;;40.17;21.52;;;-2.40;99.90;;;;;;5111883;27;20082;-60
2022/12/10 03:29:44;;;;;;;51.00;23.63;;;-2.40;99.90;;;;;;5126230;27;20035;-60
2022/12/10 03:32:10;;;;;;;50.20;23.75;;;-2.40;99.90;;;;;;5089309;28;20058;-60
2022/12/10 03:34:37;;;;;;;46.10;24.52;;;-2.40;99.90;;;;;;5108400;28;20057;-60
2022/12/10 03:37:06;;;;;;;47.15;22.77;;;-2.40;99.90;;;;;;5108993;27;20039;-60
2022/12/10 03:39:38;;;;;;;46.85;22.17;;;-2.40;99.90;;;;;;5121858;27;20053;-60
2022/12/10 03:42:05;;;;;;;42.35;22.63;;;-2.50;99.90;;;;;;5109451;27;20083;-59
2022/12/10 03:44:34;;;;;;;41.67;21.55;;;-2.50;99.90;;;;;;5102807;27;20517;-60
2022/12/10 03:47:01;;;;;;;46.03;23.65;;;-2.50;99.90;;;;;;5111085;27;20035;-59
2022/12/10 03:49:27;;;;;;;47.10;24.27;;;-2.60;99.90;;;;;;5113076;27;20086;-60
2022/12/10 03:51:53;;;;;;;48.80;23.38;;;-2.60;99.90;;;;;;5113973;27;20481;-60
2022/12/10 03:54:19;;;;;;;47.08;23.02;;;-2.60;99.90;;;;;;5111246;27;20039;-60
2022/12/10 03:56:46;;;;;;;50.03;24.33;;;-2.60;99.90;;;;;;5124731;27;20040;-60
2022/12/10 03:59:11;;;;;;;45.40;22.83;;;-2.60;99.90;;;;;;5128001;27;20043;-60
2022/12/10 04:01:37;;;;;;;50.35;22.60;;;-2.50;99.90;;;;;;5120220;27;20051;-60
2022/12/10 04:04:04;;;;;;;45.08;22.77;;;-2.50;99.90;;;;;;5104217;28;20047;-60
2022/12/10 04:06:30;;;;;;;52.95;25.65;;;-2.50;99.90;;;;;;5093579;28;20075;-60
2022/12/10 04:08:55;;;;;;;48.47;24.70;;;-2.40;99.90;;;;;;5091878;27;20075;-59
2022/12/10 04:11:21;;;;;;;50.47;24.52;;;-2.40;99.90;;;;;;5114024;27;20040;-60
2022/12/10 04:16:34;;;;;;;41.55;21.80;;;-2.30;99.90;;;;;;5112043;27;20051;-60
2022/12/10 04:19:08;;;;;;;54.72;24.50;;;-2.20;99.90;;;;;;5106341;27;20523;-60
2022/12/10 04:27:29;;;;;;;55.45;25.70;;;-2.10;99.90;;;;;;5111266;27;20122;-60
2022/12/10 04:29:56;;;;;;;54.25;24.55;;;-2.10;99.90;;;;;;5090023;28;20102;-60
2022/12/10 04:32:24;;;;;;;49.80;25.55;;;-2.00;99.90;;;;;;5105962;27;20417;-60
2022/12/10 04:34:50;;;;;;;58.05;26.73;;;-2.10;99.90;;;;;;5107831;28;20047;-60
2022/12/10 04:37:17;;;;;;;49.97;26.02;;;-2.00;99.90;;;;;;5108630;27;20088;-60
2022/12/10 04:39:43;;;;;;;51.90;26.92;;;-2.00;99.90;;;;;;5106060;27;20058;-60
2022/12/10 04:42:08;;;;;;;53.05;24.25;;;-2.10;99.90;;;;;;5107429;28;20039;-60
2022/12/10 04:44:34;;;;;;;53.53;24.92;;;-2.10;99.90;;;;;;5105553;28;20119;-60
2022/12/10 04:47:00;;;;;;;55.22;26.88;;;-2.10;99.90;;;;;;5107780;28;20181;-60
2022/12/10 04:49:26;;;;;;;59.33;27.10;;;-2.00;99.90;;;;;;5106715;28;20130;-59
2022/12/10 04:51:52;;;;;;;54.42;25.63;;;-2.00;99.90;;;;;;5107380;28;20042;-60
2022/12/10 04:54:19;;;;;;;54.78;25.42;;;-2.00;99.90;;;;;;5088384;28;20043;-60
2022/12/10 04:56:45;;;;;;;63.72;26.77;;;-1.90;99.90;;;;;;5088274;28;20055;-60
2022/12/10 04:59:12;;;;;;;45.55;24.48;;;-2.00;99.90;;;;;;5117494;27;20228;-60
2022/12/10 05:01:38;;;;;;;62.45;28.10;;;-2.00;99.90;;;;;;5111606;27;20051;-59
2022/12/10 05:04:05;;;;;;;55.42;27.02;;;-2.00;99.90;;;;;;5109678;28;20050;-60
2022/12/10 05:06:31;;;;;;;53.38;26.58;;;-1.90;99.90;;;;;;5094132;28;20042;-60
2022/12/10 05:08:58;;;;;;;53.30;26.05;;;-1.90;99.90;;;;;;5122910;27;20042;-59
2022/12/10 05:11:26;;;;;;;55.60;25.60;;;-2.00;99.90;;;;;;5118784;27;20119;-60
2022/12/10 05:13:53;;;;;;;53.42;26.95;;;-2.00;99.90;;;;;;5106756;28;20079;-59
2022/12/10 05:16:21;;;;;;;53.67;27.38;;;-2.00;99.90;;;;;;5093673;27;20043;-60
2022/12/10 05:18:49;;;;;;;54.55;26.58;;;-2.00;99.90;;;;;;5107873;28;20086;-60
2022/12/10 05:21:16;;;;;;;51.70;25.00;;;-2.10;99.90;;;;;;5113001;27;20553;-60
2022/12/10 05:23:45;;;;;;;53.30;26.20;;;-2.10;99.90;;;;;;5125911;27;20046;-60
2022/12/10 05:26:12;;;;;;;54.28;27.98;;;-2.10;99.90;;;;;;5110537;27;20074;-60
2022/12/10 05:28:47;;;;;;;48.75;24.17;;;-2.20;99.90;;;;;;5105317;28;20524;-60
2022/12/10 05:31:23;;;;;;;50.53;24.88;;;-2.20;99.90;;;;;;5118265;28;20040;-60
2022/12/10 05:33:57;;;;;;;53.58;25.30;;;-2.30;99.90;;;;;;5116289;28;20441;-60
2022/12/10 05:36:25;;;;;;;53.20;27.08;;;-2.30;99.90;;;;;;5105435;28;20071;-60
2022/12/10 05:38:53;;;;;;;51.25;27.65;;;-2.30;99.90;;;;;;5107112;28;20162;-60
2022/12/10 05:41:22;;;;;;;53.85;26.10;;;-2.30;99.90;;;;;;5104800;28;20398;-60
2022/12/10 05:43:48;;;;;;;57.65;26.95;;;-2.40;99.90;;;;;;5106455;28;20036;-60
2022/12/10 05:46:20;;;;;;;59.00;27.25;;;-2.40;99.90;;;;;;5105896;28;20047;-60
2022/12/10 05:48:46;;;;;;;55.42;27.27;;;-2.40;99.90;;;;;;5105529;28;20040;-60
2022/12/10 05:51:18;;;;;;;50.83;25.63;;;-2.40;99.90;;;;;;5089276;28;20046;-60
2022/12/10 05:53:44;;;;;;;60.45;27.48;;;-2.40;99.90;;;;;;5105109;28;20055;-59
2022/12/10 05:56:20;;;;;;;50.70;25.70;;;-2.40;99.90;;;;;;5106989;28;20577;-60
2022/12/10 05:58:47;;;;;;;61.33;29.10;;;-2.50;99.90;;;;;;5105662;28;20052;-60
2022/12/10 06:01:16;;;;;;;60.47;28.33;;;-2.50;99.90;;;;;;5116960;27;20050;-62
2022/12/10 06:03:42;;;;;;;60.97;26.95;;;-2.50;99.90;;;;;;5124064;27;20879;-62
2022/12/10 06:06:09;;;;;;;53.72;28.35;;;-2.50;99.90;;;;;;5109676;28;20036;-62
2022/12/10 06:08:35;;;;;;;61.05;27.75;;;-2.50;99.90;;;;;;5109829;28;20569;-62
2022/12/10 06:11:06;;;;;;;60.78;30.20;;;-2.50;99.90;;;;;;5126897;27;20043;-62
2022/12/10 06:13:32;;;;;;;60.35;27.75;;;-2.50;99.90;;;;;;5112995;27;20134;-62
2022/12/10 06:15:58;;;;;;;58.40;29.85;;;-2.40;99.90;;;;;;5108882;28;20126;-62
2022/12/10 06:18:24;;;;;;;55.83;28.40;;;-2.40;99.90;;;;;;5116734;27;20237;-62
2022/12/10 06:20:50;;;;;;;57.88;28.52;;;-2.40;99.90;;;;;;5119790;27;20115;-62
2022/12/10 06:23:16;;;;;;;59.95;29.98;;;-2.40;99.90;;;;;;5125811;27;20114;-62
2022/12/10 06:25:42;;;;;;;60.08;29.33;;;-2.30;99.90;;;;;;5097838;28;20043;-62
2022/12/10 06:28:08;;;;;;;59.00;30.67;;;-2.30;99.90;;;;;;5109259;28;20042;-62
2022/12/10 06:30:34;;;;;;;59.22;29.20;;;-2.30;99.90;;;;;;5109931;28;20219;-62
2022/12/10 06:33:00;;;;;;;65.38;30.40;;;-2.30;99.90;;;;;;5093048;27;20054;-62
2022/12/10 06:35:26;;;;;;;72.30;31.77;;;-2.20;99.90;;;;;;5112182;27;20047;-62
2022/12/10 06:37:52;;;;;;;54.92;26.35;;;-2.20;99.90;;;;;;5114856;27;20047;-62
2022/12/10 06:40:18;;;;;;;71.80;31.60;;;-2.10;99.90;;;;;;5120397;27;20516;-62
2022/12/10 06:42:45;;;;;;;59.92;28.73;;;-2.10;99.90;;;;;;5129603;27;20420;-62
2022/12/10 06:45:12;;;;;;;70.35;32.30;;;-2.10;99.90;;;;;;5108747;27;20051;-62
2022/12/10 06:47:38;;;;;;;70.32;31.02;;;-2.00;99.90;;;;;;5111085;27;20130;-62
2022/12/10 06:50:05;;;;;;;61.28;27.77;;;-2.00;99.90;;;;;;5126380;27;20116;-62
2022/12/10 06:52:31;;;;;;;65.30;30.23;;;-2.00;99.90;;;;;;5112938;27;20505;-62
2022/12/10 06:54:56;;;;;;;63.30;29.15;;;-1.90;99.90;;;;;;5117075;27;20134;-62
2022/12/10 06:57:23;;;;;;;63.30;29.58;;;-2.00;99.90;;;;;;5129860;27;20086;-62
2022/12/10 06:59:49;;;;;;;66.97;31.55;;;-2.10;99.90;;;;;;5128929;27;20043;-62
2022/12/10 07:02:15;;;;;;;61.47;29.73;;;-2.10;99.90;;;;;;5107735;27;20042;-62
2022/12/10 07:04:40;;;;;;;56.88;26.42;;;-2.20;99.90;;;;;;5127598;27;20082;-60
2022/12/10 07:07:06;;;;;;;61.42;28.85;;;-2.20;99.90;;;;;;5120471;27;20126;-60
2022/12/10 07:09:33;;;;;;;62.97;29.30;;;-2.20;99.90;;;;;;5122908;27;20061;-59
2022/12/10 07:11:59;;;;;;;62.67;29.25;;;-2.30;99.90;;;;;;5096278;28;20058;-59
2022/12/10 07:14:25;;;;;;;57.70;28.80;;;-2.30;99.90;;;;;;5110156;27;20131;-60
2022/12/10 07:16:52;;;;;;;69.13;30.58;;;-2.30;99.90;;;;;;5108352;28;20385;-59
2022/12/10 07:19:17;;;;;;;60.10;29.00;;;-2.30;99.90;;;;;;5090324;28;20150;-59
2022/12/10 07:21:43;;;;;;;51.85;23.25;;;-2.30;99.90;;;;;;5091237;27;20541;-60
2022/12/10 07:24:16;;;;;;;55.67;25.80;;;-2.40;99.90;;;;;;5108395;27;20435;-60
2022/12/10 07:26:43;;;;;;;58.70;28.85;;;-2.40;99.90;;;;;;5123843;27;20515;-59
2022/12/10 07:29:17;;;;;;;57.90;28.90;;;-2.40;99.90;;;;;;5128273;27;20050;-59
2022/12/10 07:31:43;;;;;;;58.10;27.27;;;-2.50;99.90;;;;;;5108945;27;20052;-60
2022/12/10 07:34:10;;;;;;;57.20;27.95;;;-2.50;99.90;;;;;;5108465;28;20047;-59
2022/12/10 07:36:36;;;;;;;55.50;26.90;;;-2.50;99.90;;;;;;5114745;27;20125;-60
2022/12/10 07:39:06;;;;;;;58.13;27.02;;;-2.50;99.90;;;;;;5109783;27;20122;-60
2022/12/10 07:41:32;;;;;;;48.85;24.58;;;-2.40;99.90;;;;;;5109151;27;20722;-59
2022/12/10 07:43:58;;;;;;;65.00;29.42;;;-2.40;99.90;;;;;;5112380;27;20089;-60
2022/12/10 07:46:27;;;;;;;62.60;31.33;;;-2.40;99.90;;;;;;5107349;28;20039;-60
2022/12/10 07:48:54;;;;;;;70.90;30.20;;;-2.40;99.90;;;;;;5090040;28;20047;-60
2022/12/10 07:51:22;;;;;;;66.10;29.85;;;-2.30;99.90;;;;;;5107580;28;20069;-59
2022/12/10 07:53:51;;;;;;;69.93;30.92;;;-2.30;99.90;;;;;;5108587;27;20602;-60
2022/12/10 07:56:17;;;;;;;64.60;28.73;;;-2.30;99.90;;;;;;5108499;28;20398;-62
2022/12/10 07:58:44;;;;;;;70.57;30.65;;;-2.30;99.90;;;;;;5095509;28;20108;-62
2022/12/10 08:01:19;;;;;;;71.00;32.63;;;-2.30;99.90;;;;;;5108464;28;20056;-59
2022/12/10 08:03:45;;;;;;;60.40;29.23;;;-2.30;99.90;;;;;;5106979;27;20047;-62
2022/12/10 08:06:13;;;;;;;60.17;26.88;;;-2.20;99.90;;;;;;5090416;28;20055;-62
2022/12/10 08:08:40;;;;;;;65.82;29.75;;;-2.20;99.90;;;;;;5122332;27;20505;-62
2022/12/10 08:11:07;;;;;;;67.40;28.48;;;-2.20;99.90;;;;;;5086802;28;20077;-62
2022/12/10 08:13:33;;;;;;;64.88;30.30;;;-2.20;99.90;;;;;;5111386;27;20027;-62
2022/12/10 08:16:08;;;;;;;74.30;31.25;;;-2.10;99.90;;;;;;5117234;27;20443;-62
2022/12/10 08:18:34;;;;;;;67.70;29.27;;;-2.10;99.90;;;;;;5128488;27;20110;-62
2022/12/10 08:21:04;;;;;;;73.80;30.55;;;-2.10;99.90;;;;;;5126776;27;20486;-62
2022/12/10 08:23:30;;;;;;;72.00;29.48;;;-2.10;99.90;;;;;;5127783;27;20035;-62
2022/12/10 08:25:56;;;;;;;73.15;31.40;;;-2.10;99.90;;;;;;5117372;27;20054;-62
2022/12/10 08:28:22;;;;;;;66.07;31.23;;;-2.10;99.90;;;;;;5107858;27;20039;-62
2022/12/10 08:30:48;;;;;;;69.40;30.27;;;-2.10;99.90;;;;;;5115501;27;20105;-62
2022/12/10 08:33:14;;;;;;;66.63;29.38;;;-2.10;99.90;;;;;;5115634;27;20456;-62
2022/12/10 08:35:41;;;;;;;68.55;32.55;;;-2.10;99.90;;;;;;5128128;27;20050;-62
2022/12/10 08:38:06;;;;;;;68.13;31.42;;;-2.00;99.90;;;;;;5126297;27;20050;-62
2022/12/10 08:40:32;;;;;;;67.10;31.88;;;-2.00;99.90;;;;;;5126184;27;20047;-61
2022/12/10 08:42:58;;;;;;;71.85;33.10;;;-2.00;99.90;;;;;;5096810;27;20047;-62
2022/12/10 08:45:24;;;;;;;72.80;32.03;;;-1.90;99.90;;;;;;5107151;27;20111;-59
2022/12/10 08:47:50;;;;;;;67.72;31.60;;;-1.90;99.90;;;;;;5104682;27;20050;-59
2022/12/10 08:50:15;;;;;;;73.75;32.28;;;-1.80;99.90;;;;;;5111687;27;20067;-59
2022/12/10 08:52:41;;;;;;;68.93;32.17;;;-1.80;99.90;;;;;;5126212;27;20425;-59
2022/12/10 08:55:07;;;;;;;69.88;31.35;;;-1.70;99.90;;;;;;5122496;27;20034;-59
2022/12/10 08:57:33;;;;;;;67.07;30.55;;;-1.70;99.90;;;;;;5127885;27;20035;-59
2022/12/10 08:59:59;;;;;;;81.05;33.83;;;-1.60;99.90;;;;;;5107007;27;20111;-59
2022/12/10 09:02:25;;;;;;;73.22;31.55;;;-1.50;99.90;;;;;;5094700;28;20043;-59
2022/12/10 09:04:51;;;;;;;74.18;33.60;;;-1.50;99.90;;;;;;5120427;27;20174;-59
2022/12/10 09:07:16;;;;;;;76.22;33.03;;;-1.50;99.90;;;;;;5107585;27;20039;-59
2022/12/10 09:09:43;;;;;;;81.75;34.50;;;-1.40;99.90;;;;;;5127622;27;20126;-60
2022/12/10 09:12:08;;;;;;;81.50;34.67;;;-1.30;99.90;;;;;;5117504;27;20430;-59
2022/12/10 09:14:34;;;;;;;77.65;33.10;;;-1.30;99.90;;;;;;5121807;27;20114;-59
2022/12/10 09:17:03;;;;;;;87.90;36.28;;;-1.20;99.90;;;;;;5105384;28;20371;-60
2022/12/10 09:19:29;;;;;;;61.53;28.50;;;-1.20;99.90;;;;;;5107207;28;20062;-59
2022/12/10 09:21:55;;;;;;;74.13;31.42;;;-1.10;99.90;;;;;;5105926;28;20047;-59
2022/12/10 09:24:21;;;;;;;63.38;29.35;;;-1.00;99.90;;;;;;5124162;27;20047;-60
2022/12/10 09:26:47;;;;;;;86.13;35.20;;;-0.90;99.90;;;;;;5087928;28;20564;-60
2022/12/10 09:29:13;;;;;;;96.25;37.03;;;-0.80;99.90;;;;;;5105279;28;20046;-60
2022/12/10 09:31:38;;;;;;;77.38;31.50;;;-0.70;99.90;;;;;;5120178;28;20087;-60
2022/12/10 09:34:05;;;;;;;78.85;32.50;;;-0.60;99.90;;;;;;5098317;28;20085;-59
2022/12/10 09:36:31;;;;;;;93.22;36.53;;;-0.50;99.90;;;;;;5127237;28;20047;-60
2022/12/10 09:38:57;;;;;;;86.57;33.95;;;-0.40;99.90;;;;;;5125931;28;20450;-59
2022/12/10 09:41:47;;;;;;;96.47;35.88;;;-0.40;99.90;;;;;;5108984;28;20078;-59
2022/12/10 09:44:33;;;;;;;93.85;35.83;;;-0.30;99.90;;;;;;5125024;28;20410;-59
2022/12/10 09:47:03;;;;;;;96.55;35.83;;;-0.20;99.90;;;;;;5105641;28;20055;-60
2022/12/10 09:49:53;;;;;;;98.80;37.35;;;-0.10;99.90;;;;;;5107084;28;20047;-60
2022/12/10 09:52:22;;;;;;;93.50;35.78;;;-0.10;99.90;;;;;;5105799;28;20054;-59
2022/12/10 09:55:01;;;;;;;99.10;37.15;;;-0.10;99.90;;;;;;5119526;28;20062;-60
2022/12/10 09:57:30;;;;;;;96.15;36.38;;;0.00;99.90;;;;;;5126973;28;20039;-60
2022/12/10 09:59:58;;;;;;;83.13;32.63;;;0.00;99.90;;;;;;5106951;28;20047;-60
2022/12/10 10:02:32;;;;;;;84.07;33.80;;;0.00;99.90;;;;;;5120032;28;20050;-60
2022/12/10 10:05:07;;;;;;;70.35;29.98;;;0.10;99.90;;;;;;5123892;28;20433;-60
2022/12/10 10:07:54;;;;;;;99.07;37.80;;;0.00;99.90;;;;;;5126846;28;20043;-60
2022/12/10 10:10:26;;;;;;;91.35;34.30;;;0.10;99.90;;;;;;5126448;28;20414;-60
2022/12/10 10:12:57;;;;;;;60.78;24.35;;;0.10;99.90;;;;;;5086792;28;20063;-60
2022/12/10 10:15:30;;;;;;;76.38;29.85;;;0.20;99.90;;;;;;5107436;28;20118;-60
2022/12/10 10:18:02;;;;;;;92.93;37.65;;;0.30;99.90;;;;;;5087125;28;20047;-60
2022/12/10 10:20:29;;;;;;;75.88;33.22;;;0.30;99.90;;;;;;5087350;28;20043;-63
2022/12/10 10:22:57;;;;;;;96.80;39.95;;;0.40;99.90;;;;;;5105951;28;20096;-63
2022/12/10 10:25:23;;;;;;;92.65;36.42;;;0.50;99.90;;;;;;5108805;28;20043;-63
2022/12/10 10:27:48;;;;;;;83.15;33.63;;;0.50;99.90;;;;;;5105876;28;20409;-63
2022/12/10 10:30:18;;;;;;;100.95;36.58;;;0.60;99.90;;;;;;5105254;28;20062;-62
2022/12/10 10:32:49;;;;;;;79.20;34.13;;;0.60;99.90;;;;;;5109654;28;20059;-63
2022/12/10 10:35:33;;;;;;;78.63;35.03;;;0.60;99.90;;;;;;5086758;28;20359;-63
2022/12/10 10:38:12;;;;;;;89.05;36.72;;;0.70;99.90;;;;;;5105896;28;20040;-63
2022/12/10 10:40:44;;;;;;;80.05;30.60;;;0.70;99.90;;;;;;5116133;28;20113;-63
2022/12/10 10:43:31;;;;;;;89.20;36.05;;;0.70;99.90;;;;;;5121878;28;20119;-62
2022/12/10 10:46:15;;;;;;;96.18;39.47;;;0.70;99.90;;;;;;5107313;28;20576;-63
2022/12/10 10:48:41;;;;;;;100.80;37.65;;;0.80;99.90;;;;;;5109140;28;20130;-62
2022/12/10 10:51:19;;;;;;;91.82;33.85;;;0.90;99.90;;;;;;5119352;27;20438;-63
2022/12/10 10:53:52;;;;;;;85.18;34.17;;;1.00;99.90;;;;;;5091620;28;20051;-63
2022/12/10 10:56:29;;;;;;;73.10;30.15;;;1.10;99.90;;;;;;5121343;27;20043;-62
2022/12/10 10:59:19;;;;;;;91.07;36.95;;;1.10;99.90;;;;;;5117211;27;20370;-63
2022/12/10 11:01:53;;;;;;;49.60;18.90;;;1.10;99.90;;;;;;5099513;28;20493;-63
2022/12/10 11:04:44;;;;;;;81.95;32.60;;;1.20;99.90;;;;;;5098743;27;20043;-62
2022/12/10 11:07:18;;;;;;;;;;;1.10;99.90;;;;;;5125210;27;20580;-62
2022/12/10 11:09:45;;;;;;;81.22;34.80;;;1.20;99.90;;;;;;5125879;27;19923;-62
2022/12/10 11:13:06;;;;;;;76.40;31.00;;;1.10;99.90;;;;;;5097893;28;20420;-60
2022/12/10 11:15:39;;;;;;;80.53;33.75;;;1.10;99.90;;;;;;5103546;28;20090;-61
2022/12/10 11:18:25;;;;;;;72.28;31.45;;;0.90;99.90;;;;;;5107864;28;20047;-60
2022/12/10 11:21:21;;;;;;;106.47;40.10;;;0.90;99.90;;;;;;5109051;28;20106;-60
2022/12/10 11:23:52;;;;;;;86.82;37.25;;;0.80;99.90;;;;;;5108131;27;20163;-60
2022/12/10 11:26:32;;;;;;;87.38;37.80;;;0.80;99.90;;;;;;5091565;28;20040;-61
2022/12/10 11:29:05;;;;;;;91.30;37.78;;;0.80;99.90;;;;;;5090726;28;20044;-60
2022/12/10 11:31:34;;;;;;;96.82;40.17;;;0.70;99.90;;;;;;5088931;28;20503;-60
2022/12/10 11:34:19;;;;;;;82.40;35.78;;;0.70;99.90;;;;;;5125979;27;20059;-61
2022/12/10 11:37:03;;;;;;;87.85;37.95;;;0.60;99.90;;;;;;5112394;27;20047;-60
2022/12/10 11:39:47;;;;;;;105.32;39.60;;;0.70;99.90;;;;;;5110838;27;20396;-61
2022/12/10 11:42:36;;;;;;;89.65;37.90;;;0.60;99.90;;;;;;5111688;27;20051;-60
2022/12/10 11:45:25;;;;;;;85.43;37.33;;;0.60;99.90;;;;;;5116875;27;20042;-60
2022/12/10 11:48:13;;;;;;;91.10;37.20;;;0.60;99.90;;;;;;5112606;27;20082;-60
2022/12/10 11:51:14;;;;;;;72.68;34.25;;;0.60;99.90;;;;;;5116933;27;20504;-60
2022/12/10 11:54:03;;;;;;;83.53;35.80;;;0.60;99.90;;;;;;5019810;28;20065;-60
2022/12/10 11:56:46;;;;;;;73.82;31.10;;;0.60;99.90;;;;;;5113973;27;20123;-60
2022/12/10 11:59:20;;;;;;;98.22;38.80;;;0.60;99.90;;;;;;5118299;27;20063;-60
2022/12/10 12:01:48;;;;;;;67.60;29.70;;;0.60;99.90;;;;;;5118690;27;20400;-60
2022/12/10 12:04:28;;;;;;;77.13;33.60;;;0.60;99.90;;;;;;5114709;27;20043;-60
2022/12/10 12:07:10;;;;;;;70.87;32.57;;;0.60;99.90;;;;;;5110952;27;20594;-60
2022/12/10 12:09:46;;;;;;;74.32;31.52;;;0.60;99.90;;;;;;5126506;27;20035;-60
2022/12/10 12:12:29;;;;;;;78.45;34.50;;;0.50;99.90;;;;;;5114093;27;20039;-60
2022/12/10 12:15:01;;;;;;;66.65;28.02;;;0.50;99.90;;;;;;5108322;27;20086;-60
2022/12/10 12:17:33;;;;;;;74.40;32.55;;;0.50;99.90;;;;;;5120879;27;20515;-60
2022/12/10 12:20:04;;;;;;;75.88;33.10;;;0.50;99.90;;;;;;5107527;28;20829;-61
2022/12/10 12:22:36;;;;;;;82.90;34.28;;;0.50;99.90;;;;;;5087885;28;20287;-60
2022/12/10 12:25:31;;;;;;;96.22;41.28;;;0.50;99.90;;;;;;5108788;27;20047;-60
2022/12/10 12:28:16;;;;;;;97.85;37.90;;;0.60;99.90;;;;;;5104245;28;20079;-61
2022/12/10 12:30:46;;;;;;;84.80;36.55;;;0.60;99.90;;;;;;5106141;28;20482;-60
2022/12/10 12:33:29;;;;;;;86.80;36.85;;;0.60;99.90;;;;;;5108199;27;20397;-60
2022/12/10 12:36:20;;;;;;;86.47;36.80;;;0.60;99.90;;;;;;5121270;27;20088;-60
2022/12/10 12:39:01;;;;;;;85.03;33.65;;;0.60;99.90;;;;;;5118615;27;20035;-60
2022/12/10 12:41:47;;;;;;;93.22;39.40;;;0.70;99.90;;;;;;5106585;28;20043;-60
2022/12/10 12:44:21;;;;;;;80.30;34.72;;;0.70;99.90;;;;;;5087615;27;20532;-60
2022/12/10 12:46:48;;;;;;;87.75;35.35;;;0.70;99.90;;;;;;5099290;28;20047;-61
2022/12/10 12:49:21;;;;;;;94.90;41.15;;;0.70;99.90;;;;;;5116176;27;20077;-60
2022/12/10 12:52:00;;;;;;;83.60;37.60;;;0.70;99.90;;;;;;5119454;27;20112;-60
2022/12/10 12:54:27;;;;;;;87.68;38.50;;;0.60;99.90;;;;;;5120752;27;20046;-60